createdAt,value
2018-03-07T00:00:36.577Z,90.50
2018-03-07T00:03:04.189Z,90.50
2018-03-07T00:05:31.660Z,90.40
2018-03-07T00:07:59.164Z,90.50
2018-03-07T00:10:27.488Z,90.60
2018-03-07T00:12:55.756Z,90.60
2018-03-07T00:15:23.392Z,90.50
2018-03-07T00:17:50.986Z,90.40
2018-03-07T00:20:18.489Z,90.50
2018-03-07T00:22:46.839Z,90.70
2018-03-07T00:25:14.353Z,90.70
2018-03-07T00:27:41.830Z,90.60
2018-03-07T00:30:09.301Z,90.40
2018-03-07T00:32:36.821Z,90.10
2018-03-07T00:35:04.310Z,90.20
2018-03-07T00:37:31.812Z,90.30
2018-03-07T00:40:00.214Z,90.50
2018-03-07T00:42:27.748Z,90.40
2018-03-07T00:44:56.088Z,90.50
2018-03-07T00:47:23.562Z,90.50
2018-03-07T00:49:51.067Z,90.30
2018-03-07T00:52:18.559Z,90.70
2018-03-07T00:54:46.028Z,91.20
2018-03-07T00:57:13.516Z,91.20
2018-03-07T00:59:41.085Z,91.40
2018-03-07T01:02:08.582Z,91.40
2018-03-07T01:04:36.074Z,91.40
2018-03-07T01:07:04.306Z,91.20
2018-03-07T01:09:31.780Z,91.20
2018-03-07T01:11:59.364Z,91.60
2018-03-07T01:14:27.605Z,91.60
2018-03-07T01:16:55.164Z,91.50
2018-03-07T01:19:22.631Z,91.60
2018-03-07T01:21:50.894Z,91.90
2018-03-07T01:24:18.411Z,91.70
2018-03-07T01:26:46.072Z,91.90
2018-03-07T01:29:13.541Z,92.10
2018-03-07T01:31:41.049Z,92.20
2018-03-07T01:34:09.299Z,92.40
2018-03-07T01:36:36.911Z,92.40
2018-03-07T01:39:04.520Z,92.50
2018-03-07T01:41:32.064Z,92.40
2018-03-07T01:43:59.552Z,92.50
2018-03-07T01:46:27.909Z,92.30
2018-03-07T01:48:55.401Z,92.30
2018-03-07T01:51:22.940Z,92.50
2018-03-07T01:53:51.198Z,92.60
2018-03-07T01:56:18.725Z,92.60
2018-03-07T01:58:46.414Z,92.40
2018-03-07T02:01:13.888Z,92.20
2018-03-07T02:03:42.204Z,92.10
2018-03-07T02:06:09.711Z,92.10
2018-03-07T02:08:37.185Z,92.00
2018-03-07T02:11:05.434Z,92.10
2018-03-07T02:13:33.018Z,92.10
2018-03-07T02:16:01.266Z,92.20
2018-03-07T02:18:28.764Z,92.20
2018-03-07T02:20:56.250Z,92.30
2018-03-07T02:23:23.720Z,92.70
2018-03-07T02:25:51.211Z,92.40
2018-03-07T02:28:19.461Z,92.40
2018-03-07T02:30:46.985Z,92.40
2018-03-07T02:33:14.455Z,92.30
2018-03-07T02:35:42.077Z,92.20
2018-03-07T02:38:09.651Z,92.20
2018-03-07T02:40:37.154Z,92.20
2018-03-07T02:43:04.626Z,92.20
2018-03-07T02:45:32.159Z,92.00
2018-03-07T02:47:59.643Z,91.60
2018-03-07T02:50:27.863Z,91.80
2018-03-07T02:52:55.352Z,91.50
2018-03-07T02:55:22.850Z,91.50
2018-03-07T02:57:50.315Z,91.30
2018-03-07T03:00:17.925Z,91.30
2018-03-07T03:02:45.388Z,91.20
2018-03-07T03:05:13.669Z,91.30
2018-03-07T03:07:42.006Z,91.30
2018-03-07T03:10:09.715Z,91.30
2018-03-07T03:12:37.997Z,91.60
2018-03-07T03:15:05.483Z,91.60
2018-03-07T03:17:33.157Z,91.60
2018-03-07T03:20:00.653Z,91.60
2018-03-07T03:22:29.054Z,92.00
2018-03-07T03:24:56.535Z,92.00
2018-03-07T03:27:24.094Z,92.10
2018-03-07T03:29:51.622Z,92.10
2018-03-07T03:32:19.103Z,92.10
2018-03-07T03:34:46.624Z,92.10
2018-03-07T03:37:14.876Z,92.20
2018-03-07T03:39:42.365Z,92.20
2018-03-07T03:42:09.888Z,92.20
2018-03-07T03:44:38.220Z,92.60
2018-03-07T03:47:05.898Z,92.50
2018-03-07T03:49:33.383Z,92.60
2018-03-07T03:52:01.702Z,92.30
2018-03-07T03:54:29.257Z,92.30
2018-03-07T03:56:56.831Z,92.30
2018-03-07T03:59:24.385Z,92.40
2018-03-07T04:01:51.879Z,92.40
2018-03-07T04:04:19.377Z,92.50
2018-03-07T04:06:47.029Z,92.70
2018-03-07T04:09:14.603Z,93.00
2018-03-07T04:11:42.232Z,93.20
2018-03-07T04:14:10.562Z,93.20
2018-03-07T04:16:38.076Z,93.20
2018-03-07T04:19:06.452Z,93.20
2018-03-07T04:21:34.814Z,93.20
2018-03-07T04:24:03.204Z,93.30
2018-03-07T04:26:31.581Z,93.20
2018-03-07T04:28:59.840Z,93.10
2018-03-07T04:31:28.213Z,93.10
2018-03-07T04:33:55.755Z,93.10
2018-03-07T04:36:23.381Z,93.20
2018-03-07T04:38:50.857Z,93.30
2018-03-07T04:41:18.314Z,93.10
2018-03-07T04:43:45.830Z,92.90
2018-03-07T04:46:13.353Z,92.70
2018-03-07T04:48:40.843Z,92.60
2018-03-07T04:51:08.361Z,92.40
2018-03-07T04:53:35.847Z,92.60
2018-03-07T04:56:03.323Z,92.60
2018-03-07T04:58:30.802Z,92.60
2018-03-07T05:00:58.399Z,92.50
2018-03-07T05:03:26.627Z,92.50
2018-03-07T05:05:54.117Z,92.50
2018-03-07T05:08:21.600Z,92.50
2018-03-07T05:10:49.833Z,92.90
2018-03-07T05:13:17.382Z,92.90
2018-03-07T05:15:45.221Z,93.00
2018-03-07T05:18:12.691Z,92.80
2018-03-07T05:20:40.184Z,92.80
2018-03-07T05:23:07.663Z,92.90
2018-03-07T05:25:35.910Z,92.90
2018-03-07T05:28:03.486Z,92.90
2018-03-07T05:30:31.741Z,93.00
2018-03-07T05:32:59.351Z,93.00
2018-03-07T05:35:26.826Z,92.90
2018-03-07T05:37:54.306Z,92.80
2018-03-07T05:40:21.791Z,92.60
2018-03-07T05:42:50.045Z,92.60
2018-03-07T05:45:17.517Z,92.60
2018-03-07T05:47:45.823Z,92.80
2018-03-07T05:50:13.483Z,92.70
2018-03-07T05:52:40.966Z,92.50
2018-03-07T05:55:08.445Z,92.40
2018-03-07T05:57:36.056Z,92.60
2018-03-07T06:00:03.607Z,92.50
2018-03-07T06:02:31.091Z,92.30
2018-03-07T06:04:58.559Z,92.30
2018-03-07T06:07:26.100Z,92.50
2018-03-07T06:09:53.647Z,92.50
2018-03-07T06:12:21.155Z,92.70
2018-03-07T06:14:48.717Z,92.70
2018-03-07T06:17:18.874Z,92.60
2018-03-07T06:19:46.635Z,92.60
2018-03-07T06:22:14.157Z,92.50
2018-03-07T06:24:42.417Z,92.40
2018-03-07T06:27:09.896Z,92.40
2018-03-07T06:29:38.172Z,92.60
2018-03-07T06:32:06.507Z,92.70
2018-03-07T06:34:33.973Z,92.70
2018-03-07T06:37:01.442Z,92.80
2018-03-07T06:39:28.915Z,92.80
2018-03-07T06:41:57.195Z,92.80
2018-03-07T06:44:25.470Z,92.50
2018-03-07T06:46:53.835Z,92.10
2018-03-07T06:49:22.248Z,92.00
2018-03-07T06:51:49.723Z,91.90
2018-03-07T06:54:17.214Z,92.10
2018-03-07T06:56:44.716Z,91.70
2018-03-07T06:59:12.199Z,91.50
2018-03-07T07:01:39.691Z,91.60
2018-03-07T07:04:08.033Z,91.10
2018-03-07T07:06:35.648Z,91.10
2018-03-07T07:09:03.200Z,90.00
2018-03-07T07:11:31.481Z,84.90
2018-03-07T07:13:59.907Z,82.80
2018-03-07T07:16:27.418Z,82.60
2018-03-07T07:18:55.097Z,78.00
2018-03-07T07:21:22.676Z,74.60
2018-03-07T07:23:50.183Z,72.40
2018-03-07T07:26:20.180Z,69.50
2018-03-07T07:28:47.664Z,69.50
2018-03-07T07:31:15.221Z,66.80
2018-03-07T07:33:42.712Z,64.50
2018-03-07T07:36:10.279Z,65.20
2018-03-07T07:38:37.794Z,65.90
2018-03-07T07:41:05.303Z,64.00
2018-03-07T07:43:32.871Z,63.80
2018-03-07T07:46:00.406Z,62.80
2018-03-07T07:48:27.948Z,62.90
2018-03-07T07:50:55.428Z,61.20
2018-03-07T07:53:23.019Z,59.40
2018-03-07T07:55:51.303Z,57.80
2018-03-07T07:58:19.605Z,56.30
2018-03-07T08:00:47.143Z,56.20
2018-03-07T08:03:14.678Z,55.30
2018-03-07T08:05:42.938Z,55.60
2018-03-07T08:08:10.439Z,55.10
2018-03-07T08:10:37.966Z,53.40
2018-03-07T08:13:05.512Z,53.10
2018-03-07T08:15:32.992Z,53.30
2018-03-07T08:18:01.263Z,52.70
2018-03-07T08:20:29.530Z,52.30
2018-03-07T08:22:57.770Z,52.30
2018-03-07T08:25:25.388Z,52.20
2018-03-07T08:27:52.921Z,51.80
2018-03-07T08:30:21.175Z,49.80
2018-03-07T08:32:48.658Z,49.70
2018-03-07T08:35:16.900Z,48.10
2018-03-07T08:37:44.365Z,48.00
2018-03-07T08:40:11.867Z,47.00
2018-03-07T08:42:39.398Z,46.60
2018-03-07T08:45:07.719Z,46.70
2018-03-07T08:47:35.204Z,46.60
2018-03-07T08:50:02.712Z,45.50
2018-03-07T08:52:30.218Z,45.40
2018-03-07T08:54:57.686Z,44.70
2018-03-07T08:57:26.012Z,44.80
2018-03-07T08:59:53.517Z,44.70
2018-03-07T09:02:22.639Z,43.90
2018-03-07T09:04:50.172Z,43.90
2018-03-07T09:07:17.757Z,43.10
2018-03-07T09:09:45.255Z,41.50
2018-03-07T09:12:12.751Z,41.10
2018-03-07T09:14:41.040Z,42.90
2018-03-07T09:17:08.566Z,43.50
2018-03-07T09:19:37.550Z,45.20
2018-03-07T09:22:06.580Z,47.30
2018-03-07T09:24:34.165Z,47.30
2018-03-07T09:27:01.682Z,48.70
2018-03-07T09:29:29.171Z,48.80
2018-03-07T09:31:56.658Z,49.30
2018-03-07T09:34:24.148Z,50.00
2018-03-07T09:36:52.438Z,52.70
2018-03-07T09:39:20.010Z,52.60
2018-03-07T09:41:47.494Z,52.80
2018-03-07T09:44:15.154Z,55.00
2018-03-07T09:46:43.064Z,57.30
2018-03-07T09:49:11.521Z,57.00
2018-03-07T09:51:38.990Z,57.00
2018-03-07T09:54:07.289Z,56.90
2018-03-07T09:56:34.883Z,56.90
2018-03-07T09:59:02.292Z,56.50
2018-03-07T10:01:30.594Z,57.00
2018-03-07T10:03:58.074Z,57.00
2018-03-07T10:06:25.566Z,57.50
2018-03-07T10:08:53.843Z,57.00
2018-03-07T10:11:22.119Z,58.40
2018-03-07T10:13:50.426Z,57.40
2018-03-07T10:16:17.949Z,57.30
2018-03-07T10:18:46.189Z,58.60
2018-03-07T10:21:13.775Z,58.60
2018-03-07T10:23:41.292Z,59.50
2018-03-07T10:26:08.813Z,61.20
2018-03-07T10:28:37.149Z,61.60
2018-03-07T10:31:04.874Z,61.60
2018-03-07T10:33:32.402Z,61.90
2018-03-07T10:35:59.892Z,61.80
2018-03-07T10:38:27.356Z,63.90
2018-03-07T10:40:55.053Z,64.10
2018-03-07T10:43:22.569Z,64.60
2018-03-07T10:45:50.062Z,65.40
2018-03-07T10:48:17.565Z,65.90
2018-03-07T10:50:45.050Z,66.70
2018-03-07T10:53:12.539Z,68.80
2018-03-07T10:55:40.027Z,69.40
2018-03-07T10:58:08.248Z,72.20
2018-03-07T11:00:38.555Z,71.80
2018-03-07T11:03:06.058Z,73.00
2018-03-07T11:05:34.315Z,73.40
2018-03-07T11:08:01.825Z,73.40
2018-03-07T11:10:29.320Z,74.40
2018-03-07T11:12:56.803Z,75.70
2018-03-07T11:15:30.056Z,77.80
2018-03-07T11:27:42.551Z,77.80
2018-03-07T11:30:10.801Z,85.20
2018-03-07T11:32:38.295Z,85.20
2018-03-07T11:35:05.839Z,87.90
2018-03-07T11:37:33.345Z,87.80
2018-03-07T11:40:00.837Z,88.40
2018-03-07T11:42:28.341Z,88.90
2018-03-07T11:44:55.854Z,88.30
2018-03-07T11:47:23.399Z,88.60
2018-03-07T11:49:50.887Z,88.80
2018-03-07T11:52:20.319Z,88.80
2018-03-07T11:54:47.952Z,86.40
2018-03-07T11:57:16.202Z,84.30
2018-03-07T11:59:43.696Z,84.30
2018-03-07T12:02:11.169Z,83.30
2018-03-07T12:04:38.662Z,82.30
2018-03-07T12:07:06.175Z,81.50
2018-03-07T12:09:33.671Z,81.40
2018-03-07T12:12:01.147Z,82.00
2018-03-07T12:14:28.654Z,81.60
2018-03-07T12:16:56.144Z,79.30
2018-03-07T12:19:23.683Z,80.50
2018-03-07T12:21:51.191Z,80.80
2018-03-07T12:24:19.449Z,75.60
2018-03-07T12:26:46.959Z,75.60
2018-03-07T12:29:14.436Z,74.80
2018-03-07T12:31:41.960Z,74.50
2018-03-07T12:34:09.481Z,73.20
2018-03-07T12:36:36.979Z,71.70
2018-03-07T12:39:04.488Z,71.70
2018-03-07T12:41:31.996Z,70.90
2018-03-07T12:43:59.485Z,68.50
2018-03-07T12:46:28.503Z,71.20
2018-03-07T12:48:56.775Z,70.60
2018-03-07T12:51:25.025Z,70.30
2018-03-07T12:53:52.553Z,70.30
2018-03-07T12:56:20.062Z,70.80
2018-03-07T12:58:48.326Z,71.20
2018-03-07T13:01:15.837Z,70.50
2018-03-07T13:03:43.356Z,69.80
2018-03-07T13:06:11.600Z,70.10
2018-03-07T13:08:39.165Z,70.10
2018-03-07T13:11:06.771Z,70.40
2018-03-07T13:13:34.283Z,70.70
2018-03-07T13:16:01.785Z,70.10
2018-03-07T13:18:31.493Z,69.90
2018-03-07T13:20:58.999Z,70.50
2018-03-07T13:23:26.536Z,69.50
2018-03-07T13:25:54.071Z,68.50
2018-03-07T13:28:21.557Z,68.80
2018-03-07T13:30:49.070Z,69.60
2018-03-07T13:33:16.683Z,68.90
2018-03-07T13:35:44.158Z,68.80
2018-03-07T13:38:12.526Z,67.00
2018-03-07T13:40:40.088Z,67.00
2018-03-07T13:43:07.586Z,67.00
2018-03-07T13:45:35.085Z,66.30
2018-03-07T13:48:02.567Z,65.80
2018-03-07T13:50:32.315Z,64.30
2018-03-07T13:52:59.800Z,64.30
2018-03-07T13:55:27.290Z,64.90
2018-03-07T13:57:55.540Z,64.60
2018-03-07T14:00:23.121Z,64.60
2018-03-07T14:02:51.871Z,64.30
2018-03-07T14:05:19.401Z,64.20
2018-03-07T14:07:46.940Z,64.00
2018-03-07T14:10:14.440Z,63.20
2018-03-07T14:12:41.945Z,62.10
2018-03-07T14:15:09.420Z,62.30
2018-03-07T14:17:36.912Z,62.10
2018-03-07T14:20:04.446Z,61.90
2018-03-07T14:22:32.072Z,62.00
2018-03-07T14:25:00.365Z,62.10
2018-03-07T14:27:27.871Z,62.20
2018-03-07T14:29:55.340Z,62.00
2018-03-07T14:32:22.892Z,62.80
2018-03-07T14:34:50.459Z,63.50
2018-03-07T14:37:18.145Z,63.40
2018-03-07T14:39:45.638Z,66.00
2018-03-07T14:42:13.179Z,72.60
2018-03-07T14:44:40.640Z,73.90
2018-03-07T14:47:08.171Z,76.90
2018-03-07T14:49:35.783Z,75.90
2018-03-07T14:52:03.266Z,76.10
2018-03-07T14:54:30.758Z,77.40
2018-03-07T14:56:58.255Z,77.70
2018-03-07T14:59:25.769Z,76.90
2018-03-07T15:01:53.241Z,78.00
2018-03-07T15:04:20.754Z,78.60
2018-03-07T15:06:48.293Z,77.40
2018-03-07T15:09:15.773Z,79.30
2018-03-07T15:11:44.027Z,80.60
2018-03-07T15:14:13.698Z,80.60
2018-03-07T15:16:41.820Z,81.30
2018-03-07T15:19:09.686Z,80.90
2018-03-07T15:21:37.931Z,78.70
2018-03-07T15:24:06.903Z,78.80
2018-03-07T15:26:37.180Z,79.20
2018-03-07T15:29:05.417Z,76.10
2018-03-07T15:31:33.728Z,76.00
2018-03-07T15:34:03.243Z,74.90
2018-03-07T15:36:30.750Z,75.00
2018-03-07T15:39:00.190Z,71.70
2018-03-07T15:41:28.555Z,72.10
2018-03-07T15:43:59.863Z,72.50
2018-03-07T15:46:27.356Z,71.70
2018-03-07T15:48:55.652Z,70.90
2018-03-07T15:51:23.157Z,70.90
2018-03-07T15:53:50.672Z,71.80
2018-03-07T15:56:18.158Z,70.80
2018-03-07T15:58:45.826Z,70.50
2018-03-07T16:01:13.476Z,70.20
2018-03-07T16:03:43.464Z,70.60
2018-03-07T16:06:10.960Z,70.80
2018-03-07T16:08:38.549Z,70.70
2018-03-07T16:11:06.827Z,70.50
2018-03-07T16:13:34.318Z,70.50
2018-03-07T16:16:01.882Z,70.30
2018-03-07T16:21:23.337Z,70.00
2018-03-07T16:23:51.675Z,70.20
2018-03-07T16:26:19.335Z,70.20
2018-03-07T16:28:47.016Z,70.20
2018-03-07T16:31:15.315Z,70.20
2018-03-07T16:33:43.110Z,70.20
2018-03-07T16:36:10.603Z,69.30
2018-03-07T16:38:38.091Z,68.80
2018-03-07T16:41:06.647Z,67.50
2018-03-07T16:43:34.967Z,67.50
2018-03-07T16:46:02.486Z,67.50
2018-03-07T16:48:30.008Z,67.80
2018-03-07T16:50:57.523Z,67.80
2018-03-07T16:53:25.776Z,66.90
2018-03-07T16:55:54.069Z,67.50
2018-03-07T16:58:22.340Z,67.30
2018-03-07T17:00:50.605Z,68.30
2018-03-07T17:03:18.097Z,67.60
2018-03-07T17:05:45.583Z,67.20
2018-03-07T17:08:13.071Z,67.60
2018-03-07T17:10:40.519Z,68.50
2018-03-07T17:13:08.011Z,68.60
2018-03-07T17:15:36.266Z,69.40
2018-03-07T17:18:04.513Z,70.60
2018-03-07T17:20:31.988Z,70.10
2018-03-07T17:22:59.506Z,70.80
2018-03-07T17:25:26.990Z,71.50
2018-03-07T17:27:54.483Z,72.90
2018-03-07T17:30:21.963Z,74.20
2018-03-07T17:32:49.414Z,75.00
2018-03-07T17:35:16.899Z,75.50
2018-03-07T17:37:44.367Z,76.40
2018-03-07T17:40:11.854Z,77.00
2018-03-07T17:42:40.131Z,78.50
2018-03-07T17:45:08.372Z,79.00
2018-03-07T17:47:35.855Z,78.90
2018-03-07T17:50:04.105Z,79.10
2018-03-07T17:52:31.574Z,79.20
2018-03-07T17:54:59.087Z,79.10
2018-03-07T17:57:26.538Z,79.40
2018-03-07T17:59:54.016Z,80.10
2018-03-07T18:02:21.519Z,81.00
2018-03-07T18:04:49.018Z,81.90
2018-03-07T18:07:16.514Z,83.10
2018-03-07T18:09:44.786Z,85.00
2018-03-07T18:12:13.047Z,85.60
2018-03-07T18:14:40.543Z,85.60
2018-03-07T18:17:08.053Z,86.00
2018-03-07T18:19:35.522Z,85.60
2018-03-07T18:22:03.014Z,86.00
2018-03-07T18:24:30.513Z,86.00
2018-03-07T18:26:58.018Z,86.70
2018-03-07T18:29:26.300Z,86.70
2018-03-07T18:31:53.795Z,86.70
2018-03-07T18:34:21.292Z,87.10
2018-03-07T18:36:48.797Z,87.10
2018-03-07T18:39:16.270Z,87.30
2018-03-07T18:41:43.761Z,87.50
2018-03-07T18:44:11.292Z,87.30
2018-03-07T18:46:38.763Z,87.10
2018-03-07T18:49:06.280Z,87.20
2018-03-07T18:51:33.778Z,87.20
2018-03-07T18:54:02.074Z,88.00
2018-03-07T18:56:29.581Z,87.50
2018-03-07T18:58:57.106Z,86.50
2018-03-07T19:01:24.598Z,86.30
2018-03-07T19:03:52.091Z,86.50
2018-03-07T19:06:20.439Z,86.90
2018-03-07T19:08:47.923Z,87.00
2018-03-07T19:11:15.397Z,86.80
2018-03-07T19:13:42.929Z,86.80
2018-03-07T19:16:10.423Z,86.70
2018-03-07T19:18:38.290Z,86.70
2018-03-07T19:21:05.803Z,86.40
2018-03-07T19:23:33.286Z,86.90
2018-03-07T19:26:00.759Z,86.80
2018-03-07T19:28:28.235Z,87.10
2018-03-07T19:30:55.720Z,86.40
2018-03-07T19:33:23.205Z,86.50
2018-03-07T19:35:50.707Z,86.80
2018-03-07T19:38:18.174Z,86.40
2018-03-07T19:40:45.667Z,86.50
2018-03-07T19:43:13.955Z,86.20
2018-03-07T19:45:41.531Z,86.20
2018-03-07T19:48:09.080Z,86.70
2018-03-07T19:50:36.590Z,86.60
2018-03-07T19:53:04.085Z,86.90
2018-03-07T19:55:31.564Z,87.40
2018-03-07T19:57:59.482Z,87.70
2018-03-07T20:00:27.738Z,88.70
2018-03-07T20:02:55.242Z,88.60
2018-03-07T20:05:22.741Z,89.20
2018-03-07T20:07:50.232Z,89.90
2018-03-07T20:10:18.478Z,90.50
2018-03-07T20:12:46.004Z,90.50
2018-03-07T20:15:13.481Z,90.60
2018-03-07T20:17:40.955Z,90.80
2018-03-07T20:20:08.512Z,90.90
2018-03-07T20:22:35.986Z,90.80
2018-03-07T20:25:04.270Z,91.10
2018-03-07T20:27:32.544Z,91.10
2018-03-07T20:30:00.021Z,91.10
2018-03-07T20:32:27.555Z,91.10
2018-03-07T20:34:55.828Z,91.20
2018-03-07T20:37:23.304Z,91.10
2018-03-07T20:39:50.785Z,91.30
2018-03-07T20:42:18.258Z,91.20
2018-03-07T20:44:45.755Z,91.10
2018-03-07T20:47:14.068Z,91.30
2018-03-07T20:49:41.563Z,91.30
2018-03-07T20:52:09.069Z,91.30
2018-03-07T20:54:36.627Z,91.20
2018-03-07T20:57:04.126Z,91.10
2018-03-07T20:59:31.647Z,91.10
2018-03-07T21:01:59.123Z,90.80
2018-03-07T21:04:26.639Z,90.90
2018-03-07T21:06:54.864Z,90.80
2018-03-07T21:09:22.397Z,90.80
2018-03-07T21:11:49.888Z,90.40
2018-03-07T21:14:17.362Z,89.90
2018-03-07T21:16:45.726Z,88.30
2018-03-07T21:19:13.202Z,88.30
2018-03-07T21:21:40.842Z,88.50
2018-03-07T21:24:09.078Z,88.80
2018-03-07T21:26:36.635Z,88.70
2018-03-07T21:29:04.135Z,88.60
2018-03-07T21:31:31.620Z,88.70
2018-03-07T21:33:59.146Z,88.70
2018-03-07T21:36:26.617Z,89.10
2018-03-07T21:38:54.870Z,88.80
2018-03-07T21:41:23.120Z,89.10
2018-03-07T21:43:50.632Z,89.80
2018-03-07T21:46:18.140Z,89.60
2018-03-07T21:48:45.727Z,90.00
2018-03-07T21:51:13.967Z,90.20
2018-03-07T21:53:41.546Z,90.20
2018-03-07T21:56:09.040Z,90.10
2018-03-07T21:58:36.533Z,90.40
2018-03-07T22:01:04.070Z,90.50
2018-03-07T22:03:32.295Z,90.80
2018-03-07T22:05:59.903Z,91.00
2018-03-07T22:08:27.438Z,91.20
2018-03-07T22:10:54.967Z,90.90
2018-03-07T22:13:22.625Z,90.90
2018-03-07T22:15:50.107Z,91.10
2018-03-07T22:18:19.087Z,90.80
2018-03-07T22:20:47.407Z,91.00
2018-03-07T22:23:14.961Z,91.00
2018-03-07T22:25:42.482Z,91.10
2018-03-07T22:28:09.968Z,91.20
2018-03-07T22:30:37.466Z,91.20
2018-03-07T22:33:04.937Z,91.30
2018-03-07T22:35:33.191Z,91.30
2018-03-07T22:38:00.686Z,91.20
2018-03-07T22:40:28.187Z,91.40
2018-03-07T22:42:55.677Z,91.40
2018-03-07T22:45:23.154Z,91.40
2018-03-07T22:47:50.646Z,91.50
2018-03-07T22:50:18.125Z,91.20
2018-03-07T22:52:45.601Z,91.20
2018-03-07T22:55:13.081Z,91.00
2018-03-07T22:57:40.582Z,91.40
2018-03-07T23:00:13.695Z,91.00
2018-03-07T23:02:41.165Z,91.00
2018-03-07T23:05:09.431Z,90.90
2018-03-07T23:07:37.669Z,91.10
2018-03-07T23:10:05.165Z,91.10
2018-03-07T23:12:33.424Z,90.90
2018-03-07T23:15:00.897Z,90.90
2018-03-07T23:17:29.142Z,91.00
2018-03-07T23:19:56.628Z,91.00
2018-03-07T23:22:24.867Z,91.20
2018-03-07T23:24:52.338Z,91.20
2018-03-07T23:27:19.814Z,91.20
2018-03-07T23:29:48.078Z,91.10
2018-03-07T23:32:15.543Z,91.10
2018-03-07T23:34:43.790Z,91.00
2018-03-07T23:37:11.276Z,91.00
2018-03-07T23:39:39.861Z,91.10
2018-03-07T23:42:08.114Z,91.10
2018-03-07T23:44:35.681Z,91.10
2018-03-07T23:47:03.233Z,91.50
2018-03-07T23:49:30.728Z,91.00
2018-03-07T23:51:58.204Z,91.10
2018-03-07T23:54:25.810Z,91.00
2018-03-07T23:56:54.155Z,91.20
2018-03-07T23:59:21.755Z,91.00
